sensor_id;sensor_type;location;lat;lon;timestamp;P1;durP1;ratioP1;P2;durP2;ratioP2
29384;SDS011;16367;48.736;9.218;2023-03-14T00:00:03;1.75;;;0.40;;
29384;SDS011;16367;48.736;9.218;2023-03-14T00:02:08;3.53;;;0.63;;
29384;SDS011;16367;48.736;9.218;2023-03-14T00:04:12;1.70;;;0.30;;
29384;SDS011;16367;48.736;9.218;2023-03-14T00:06:15;1.65;;;0.47;;
29384;SDS011;16367;48.736;9.218;2023-03-14T00:08:19;1.88;;;0.43;;
29384;SDS011;16367;48.736;9.218;2023-03-14T00:10:22;1.88;;;0.43;;
29384;SDS011;16367;48.736;9.218;2023-03-14T00:12:25;2.72;;;0.65;;
29384;SDS011;16367;48.736;9.218;2023-03-14T00:14:28;2.55;;;0.70;;
29384;SDS011;16367;48.736;9.218;2023-03-14T00:16:30;2.78;;;0.75;;
29384;SDS011;16367;48.736;9.218;2023-03-14T00:18:33;2.60;;;0.50;;
29384;SDS011;16367;48.736;9.218;2023-03-14T00:20:37;2.78;;;0.93;;
29384;SDS011;16367;48.736;9.218;2023-03-14T00:22:40;2.58;;;0.80;;
29384;SDS011;16367;48.736;9.218;2023-03-14T00:24:43;2.67;;;0.63;;
29384;SDS011;16367;48.736;9.218;2023-03-14T00:26:46;1.95;;;0.52;;
29384;SDS011;16367;48.736;9.218;2023-03-14T00:28:51;1.48;;;0.55;;
29384;SDS011;16367;48.736;9.218;2023-03-14T00:30:55;2.83;;;0.73;;
29384;SDS011;16367;48.736;9.218;2023-03-14T00:32:58;2.40;;;0.60;;
29384;SDS011;16367;48.736;9.218;2023-03-14T00:35:00;3.30;;;0.50;;
29384;SDS011;16367;48.736;9.218;2023-03-14T00:37:05;1.40;;;0.45;;
29384;SDS011;16367;48.736;9.218;2023-03-14T00:39:08;2.10;;;0.57;;
29384;SDS011;16367;48.736;9.218;2023-03-14T00:41:11;1.92;;;0.70;;
29384;SDS011;16367;48.736;9.218;2023-03-14T00:43:15;1.58;;;0.52;;
29384;SDS011;16367;48.736;9.218;2023-03-14T00:45:18;1.70;;;0.45;;
29384;SDS011;16367;48.736;9.218;2023-03-14T00:47:21;1.20;;;0.50;;
29384;SDS011;16367;48.736;9.218;2023-03-14T00:49:24;1.55;;;0.60;;
29384;SDS011;16367;48.736;9.218;2023-03-14T00:51:26;2.10;;;0.60;;
29384;SDS011;16367;48.736;9.218;2023-03-14T00:53:30;1.58;;;0.32;;
29384;SDS011;16367;48.736;9.218;2023-03-14T00:55:35;0.88;;;0.40;;
29384;SDS011;16367;48.736;9.218;2023-03-14T00:57:39;2.33;;;0.50;;
29384;SDS011;16367;48.736;9.218;2023-03-14T00:59:41;0.55;;;0.28;;
29384;SDS011;16367;48.736;9.218;2023-03-14T01:01:44;1.73;;;0.50;;
29384;SDS011;16367;48.736;9.218;2023-03-14T01:03:47;3.85;;;0.55;;
29384;SDS011;16367;48.736;9.218;2023-03-14T01:05:52;2.42;;;0.52;;
29384;SDS011;16367;48.736;9.218;2023-03-14T01:07:55;1.42;;;0.40;;
29384;SDS011;16367;48.736;9.218;2023-03-14T01:09:59;1.45;;;0.40;;
29384;SDS011;16367;48.736;9.218;2023-03-14T01:12:02;1.88;;;0.50;;
29384;SDS011;16367;48.736;9.218;2023-03-14T01:14:04;3.25;;;0.55;;
29384;SDS011;16367;48.736;9.218;2023-03-14T01:16:08;2.28;;;0.35;;
29384;SDS011;16367;48.736;9.218;2023-03-14T01:18:13;1.33;;;0.40;;
29384;SDS011;16367;48.736;9.218;2023-03-14T01:20:16;2.50;;;0.47;;
29384;SDS011;16367;48.736;9.218;2023-03-14T01:22:19;1.70;;;0.40;;
29384;SDS011;16367;48.736;9.218;2023-03-14T01:24:22;0.52;;;0.20;;
29384;SDS011;16367;48.736;9.218;2023-03-14T01:26:27;0.70;;;0.30;;
29384;SDS011;16367;48.736;9.218;2023-03-14T01:28:32;1.50;;;0.47;;
29384;SDS011;16367;48.736;9.218;2023-03-14T01:30:35;1.25;;;0.30;;
29384;SDS011;16367;48.736;9.218;2023-03-14T01:32:38;0.85;;;0.28;;
29384;SDS011;16367;48.736;9.218;2023-03-14T01:34:41;0.80;;;0.28;;
29384;SDS011;16367;48.736;9.218;2023-03-14T01:36:44;2.03;;;0.32;;
29384;SDS011;16367;48.736;9.218;2023-03-14T01:38:47;0.93;;;0.30;;
29384;SDS011;16367;48.736;9.218;2023-03-14T01:40:49;1.15;;;0.30;;
29384;SDS011;16367;48.736;9.218;2023-03-14T01:42:56;1.33;;;0.30;;
29384;SDS011;16367;48.736;9.218;2023-03-14T01:45:00;1.05;;;0.35;;
29384;SDS011;16367;48.736;9.218;2023-03-14T01:47:03;1.35;;;0.30;;
29384;SDS011;16367;48.736;9.218;2023-03-14T01:49:10;1.02;;;0.30;;
29384;SDS011;16367;48.736;9.218;2023-03-14T01:51:18;1.58;;;0.38;;
29384;SDS011;16367;48.736;9.218;2023-03-14T01:53:23;1.40;;;0.35;;
29384;SDS011;16367;48.736;9.218;2023-03-14T01:55:26;3.83;;;0.50;;
29384;SDS011;16367;48.736;9.218;2023-03-14T01:57:30;1.00;;;0.30;;
29384;SDS011;16367;48.736;9.218;2023-03-14T01:59:36;1.13;;;0.40;;
29384;SDS011;16367;48.736;9.218;2023-03-14T02:01:41;1.42;;;0.30;;
29384;SDS011;16367;48.736;9.218;2023-03-14T02:03:47;0.77;;;0.22;;
29384;SDS011;16367;48.736;9.218;2023-03-14T02:05:52;2.30;;;0.30;;
29384;SDS011;16367;48.736;9.218;2023-03-14T02:07:59;1.27;;;0.20;;
29384;SDS011;16367;48.736;9.218;2023-03-14T02:10:03;1.15;;;0.30;;
29384;SDS011;16367;48.736;9.218;2023-03-14T02:12:07;1.35;;;0.40;;
29384;SDS011;16367;48.736;9.218;2023-03-14T02:14:14;1.30;;;0.30;;
29384;SDS011;16367;48.736;9.218;2023-03-14T02:16:27;2.03;;;0.40;;
29384;SDS011;16367;48.736;9.218;2023-03-14T02:18:29;1.13;;;0.30;;
29384;SDS011;16367;48.736;9.218;2023-03-14T02:20:33;1.05;;;0.30;;
29384;SDS011;16367;48.736;9.218;2023-03-14T02:22:41;0.88;;;0.20;;
29384;SDS011;16367;48.736;9.218;2023-03-14T02:24:48;1.55;;;0.40;;
29384;SDS011;16367;48.736;9.218;2023-03-14T02:27:04;1.13;;;0.25;;
29384;SDS011;16367;48.736;9.218;2023-03-14T02:29:09;0.82;;;0.30;;
29384;SDS011;16367;48.736;9.218;2023-03-14T02:31:12;1.65;;;0.20;;
29384;SDS011;16367;48.736;9.218;2023-03-14T02:33:15;1.85;;;0.47;;
29384;SDS011;16367;48.736;9.218;2023-03-14T02:35:21;0.77;;;0.22;;
29384;SDS011;16367;48.736;9.218;2023-03-14T02:37:27;0.93;;;0.30;;
29384;SDS011;16367;48.736;9.218;2023-03-14T02:39:35;0.52;;;0.20;;
29384;SDS011;16367;48.736;9.218;2023-03-14T02:41:40;0.82;;;0.30;;
29384;SDS011;16367;48.736;9.218;2023-03-14T02:43:45;1.17;;;0.32;;
29384;SDS011;16367;48.736;9.218;2023-03-14T02:45:48;1.52;;;0.28;;
29384;SDS011;16367;48.736;9.218;2023-03-14T02:47:52;0.75;;;0.20;;
29384;SDS011;16367;48.736;9.218;2023-03-14T02:50:00;0.93;;;0.45;;
29384;SDS011;16367;48.736;9.218;2023-03-14T02:52:16;1.90;;;0.47;;
29384;SDS011;16367;48.736;9.218;2023-03-14T02:54:19;1.27;;;0.38;;
29384;SDS011;16367;48.736;9.218;2023-03-14T02:56:22;1.63;;;0.40;;
29384;SDS011;16367;48.736;9.218;2023-03-14T02:58:25;1.52;;;0.35;;
29384;SDS011;16367;48.736;9.218;2023-03-14T03:00:30;1.35;;;0.30;;
29384;SDS011;16367;48.736;9.218;2023-03-14T03:02:34;1.75;;;0.40;;
29384;SDS011;16367;48.736;9.218;2023-03-14T03:04:37;1.30;;;0.40;;
29384;SDS011;16367;48.736;9.218;2023-03-14T03:06:40;0.75;;;0.28;;
29384;SDS011;16367;48.736;9.218;2023-03-14T03:08:43;0.82;;;0.20;;
29384;SDS011;16367;48.736;9.218;2023-03-14T03:10:46;1.05;;;0.50;;
29384;SDS011;16367;48.736;9.218;2023-03-14T03:12:49;0.95;;;0.38;;
29384;SDS011;16367;48.736;9.218;2023-03-14T03:14:52;2.80;;;0.70;;
29384;SDS011;16367;48.736;9.218;2023-03-14T03:16:56;0.88;;;0.30;;
29384;SDS011;16367;48.736;9.218;2023-03-14T03:18:59;1.45;;;0.40;;
29384;SDS011;16367;48.736;9.218;2023-03-14T03:21:02;1.83;;;0.40;;
29384;SDS011;16367;48.736;9.218;2023-03-14T03:23:05;1.00;;;0.40;;
29384;SDS011;16367;48.736;9.218;2023-03-14T03:25:09;2.45;;;0.40;;
29384;SDS011;16367;48.736;9.218;2023-03-14T03:27:12;1.38;;;0.30;;
29384;SDS011;16367;48.736;9.218;2023-03-14T03:29:14;0.98;;;0.25;;
29384;SDS011;16367;48.736;9.218;2023-03-14T03:31:17;3.08;;;0.52;;
29384;SDS011;16367;48.736;9.218;2023-03-14T03:33:21;1.80;;;0.40;;
29384;SDS011;16367;48.736;9.218;2023-03-14T03:35:25;0.98;;;0.30;;
29384;SDS011;16367;48.736;9.218;2023-03-14T03:37:29;1.58;;;0.50;;
29384;SDS011;16367;48.736;9.218;2023-03-14T03:39:32;2.08;;;0.50;;
29384;SDS011;16367;48.736;9.218;2023-03-14T03:41:34;2.22;;;0.47;;
29384;SDS011;16367;48.736;9.218;2023-03-14T03:43:37;1.15;;;0.40;;
29384;SDS011;16367;48.736;9.218;2023-03-14T03:45:40;1.80;;;0.50;;
29384;SDS011;16367;48.736;9.218;2023-03-14T03:47:42;4.40;;;0.80;;
29384;SDS011;16367;48.736;9.218;2023-03-14T03:49:46;1.92;;;0.43;;
29384;SDS011;16367;48.736;9.218;2023-03-14T03:51:49;1.48;;;0.60;;
29384;SDS011;16367;48.736;9.218;2023-03-14T03:53:53;3.30;;;0.60;;
29384;SDS011;16367;48.736;9.218;2023-03-14T03:55:55;3.30;;;0.50;;
29384;SDS011;16367;48.736;9.218;2023-03-14T03:57:58;1.75;;;0.32;;
29384;SDS011;16367;48.736;9.218;2023-03-14T04:00:01;2.85;;;0.50;;
29384;SDS011;16367;48.736;9.218;2023-03-14T04:02:05;2.88;;;0.50;;
29384;SDS011;16367;48.736;9.218;2023-03-14T04:04:09;1.77;;;0.50;;
29384;SDS011;16367;48.736;9.218;2023-03-14T04:06:13;4.05;;;0.70;;
29384;SDS011;16367;48.736;9.218;2023-03-14T04:08:16;1.92;;;0.50;;
29384;SDS011;16367;48.736;9.218;2023-03-14T04:10:19;3.08;;;0.55;;
29384;SDS011;16367;48.736;9.218;2023-03-14T04:12:21;2.25;;;0.63;;
29384;SDS011;16367;48.736;9.218;2023-03-14T04:14:24;2.85;;;0.55;;
29384;SDS011;16367;48.736;9.218;2023-03-14T04:16:27;5.40;;;0.90;;
29384;SDS011;16367;48.736;9.218;2023-03-14T04:18:30;3.50;;;0.65;;
29384;SDS011;16367;48.736;9.218;2023-03-14T04:20:33;4.13;;;0.73;;
29384;SDS011;16367;48.736;9.218;2023-03-14T04:22:38;1.38;;;0.40;;
29384;SDS011;16367;48.736;9.218;2023-03-14T04:24:43;2.72;;;0.60;;
29384;SDS011;16367;48.736;9.218;2023-03-14T04:26:46;4.20;;;1.25;;
29384;SDS011;16367;48.736;9.218;2023-03-14T04:28:49;4.45;;;0.70;;
29384;SDS011;16367;48.736;9.218;2023-03-14T04:30:51;4.97;;;0.82;;
29384;SDS011;16367;48.736;9.218;2023-03-14T04:32:54;2.42;;;0.63;;
29384;SDS011;16367;48.736;9.218;2023-03-14T04:34:57;3.47;;;0.80;;
29384;SDS011;16367;48.736;9.218;2023-03-14T04:37:00;2.45;;;0.43;;
29384;SDS011;16367;48.736;9.218;2023-03-14T04:39:04;3.17;;;0.50;;
29384;SDS011;16367;48.736;9.218;2023-03-14T04:41:06;3.63;;;0.80;;
29384;SDS011;16367;48.736;9.218;2023-03-14T04:43:09;2.00;;;0.52;;
29384;SDS011;16367;48.736;9.218;2023-03-14T04:45:13;2.25;;;0.60;;
29384;SDS011;16367;48.736;9.218;2023-03-14T04:47:15;4.07;;;0.60;;
29384;SDS011;16367;48.736;9.218;2023-03-14T04:49:18;2.05;;;0.73;;
29384;SDS011;16367;48.736;9.218;2023-03-14T04:51:21;2.63;;;0.50;;
29384;SDS011;16367;48.736;9.218;2023-03-14T04:53:24;4.53;;;0.82;;
29384;SDS011;16367;48.736;9.218;2023-03-14T04:55:28;3.55;;;0.80;;
29384;SDS011;16367;48.736;9.218;2023-03-14T04:57:31;3.65;;;0.80;;
29384;SDS011;16367;48.736;9.218;2023-03-14T04:59:34;3.67;;;0.57;;
29384;SDS011;16367;48.736;9.218;2023-03-14T05:01:36;3.80;;;0.70;;
29384;SDS011;16367;48.736;9.218;2023-03-14T05:03:45;3.22;;;0.70;;
29384;SDS011;16367;48.736;9.218;2023-03-14T05:05:48;2.72;;;0.65;;
29384;SDS011;16367;48.736;9.218;2023-03-14T05:07:51;3.42;;;0.85;;
29384;SDS011;16367;48.736;9.218;2023-03-14T05:09:53;2.75;;;0.50;;
29384;SDS011;16367;48.736;9.218;2023-03-14T05:11:57;2.67;;;0.40;;
29384;SDS011;16367;48.736;9.218;2023-03-14T05:14:00;2.72;;;0.57;;
29384;SDS011;16367;48.736;9.218;2023-03-14T05:16:03;3.35;;;0.40;;
29384;SDS011;16367;48.736;9.218;2023-03-14T05:18:06;4.63;;;0.70;;
29384;SDS011;16367;48.736;9.218;2023-03-14T05:20:09;4.97;;;0.98;;
29384;SDS011;16367;48.736;9.218;2023-03-14T05:22:13;3.63;;;0.50;;
29384;SDS011;16367;48.736;9.218;2023-03-14T05:24:16;2.35;;;0.75;;
29384;SDS011;16367;48.736;9.218;2023-03-14T05:26:19;3.40;;;0.70;;
29384;SDS011;16367;48.736;9.218;2023-03-14T05:28:23;2.28;;;0.70;;
29384;SDS011;16367;48.736;9.218;2023-03-14T05:30:25;4.50;;;0.70;;
29384;SDS011;16367;48.736;9.218;2023-03-14T05:32:29;3.17;;;0.75;;
29384;SDS011;16367;48.736;9.218;2023-03-14T05:34:32;3.05;;;0.75;;
29384;SDS011;16367;48.736;9.218;2023-03-14T05:36:35;5.63;;;1.42;;
29384;SDS011;16367;48.736;9.218;2023-03-14T05:38:37;1.50;;;0.52;;
29384;SDS011;16367;48.736;9.218;2023-03-14T05:40:40;9.13;;;0.93;;
29384;SDS011;16367;48.736;9.218;2023-03-14T05:42:42;5.13;;;0.70;;
29384;SDS011;16367;48.736;9.218;2023-03-14T05:44:46;4.63;;;0.70;;
29384;SDS011;16367;48.736;9.218;2023-03-14T05:46:49;5.15;;;1.00;;
29384;SDS011;16367;48.736;9.218;2023-03-14T05:48:52;3.05;;;0.73;;
29384;SDS011;16367;48.736;9.218;2023-03-14T05:50:55;2.45;;;0.60;;
29384;SDS011;16367;48.736;9.218;2023-03-14T05:52:57;2.00;;;0.52;;
29384;SDS011;16367;48.736;9.218;2023-03-14T05:55:00;5.85;;;1.15;;
29384;SDS011;16367;48.736;9.218;2023-03-14T05:57:03;2.72;;;0.60;;
29384;SDS011;16367;48.736;9.218;2023-03-14T05:59:05;3.92;;;0.93;;
29384;SDS011;16367;48.736;9.218;2023-03-14T06:01:11;2.33;;;0.45;;
29384;SDS011;16367;48.736;9.218;2023-03-14T06:03:14;2.88;;;0.50;;
29384;SDS011;16367;48.736;9.218;2023-03-14T06:05:16;3.10;;;1.08;;
29384;SDS011;16367;48.736;9.218;2023-03-14T06:07:19;3.80;;;0.80;;
29384;SDS011;16367;48.736;9.218;2023-03-14T06:09:22;4.60;;;0.70;;
29384;SDS011;16367;48.736;9.218;2023-03-14T06:11:25;5.65;;;0.80;;
29384;SDS011;16367;48.736;9.218;2023-03-14T06:13:28;3.35;;;1.38;;
29384;SDS011;16367;48.736;9.218;2023-03-14T06:15:30;3.95;;;0.68;;
29384;SDS011;16367;48.736;9.218;2023-03-14T06:17:35;3.05;;;0.75;;
29384;SDS011;16367;48.736;9.218;2023-03-14T06:19:38;2.97;;;0.98;;
29384;SDS011;16367;48.736;9.218;2023-03-14T06:21:40;4.20;;;0.60;;
29384;SDS011;16367;48.736;9.218;2023-03-14T06:23:43;3.53;;;1.05;;
29384;SDS011;16367;48.736;9.218;2023-03-14T06:25:46;2.75;;;0.60;;
29384;SDS011;16367;48.736;9.218;2023-03-14T06:27:49;2.72;;;0.75;;
29384;SDS011;16367;48.736;9.218;2023-03-14T06:29:52;1.80;;;0.60;;
29384;SDS011;16367;48.736;9.218;2023-03-14T06:31:54;2.63;;;0.90;;
29384;SDS011;16367;48.736;9.218;2023-03-14T06:33:59;2.33;;;0.60;;
29384;SDS011;16367;48.736;9.218;2023-03-14T06:36:02;3.38;;;0.50;;
29384;SDS011;16367;48.736;9.218;2023-03-14T06:38:05;2.55;;;0.50;;
29384;SDS011;16367;48.736;9.218;2023-03-14T06:40:09;6.43;;;0.60;;
29384;SDS011;16367;48.736;9.218;2023-03-14T06:42:14;3.08;;;0.50;;
29384;SDS011;16367;48.736;9.218;2023-03-14T06:44:17;4.07;;;0.88;;
29384;SDS011;16367;48.736;9.218;2023-03-14T06:46:20;3.83;;;1.00;;
29384;SDS011;16367;48.736;9.218;2023-03-14T06:48:23;2.92;;;0.60;;
29384;SDS011;16367;48.736;9.218;2023-03-14T06:50:27;5.78;;;1.27;;
29384;SDS011;16367;48.736;9.218;2023-03-14T06:52:29;5.70;;;0.82;;
29384;SDS011;16367;48.736;9.218;2023-03-14T06:54:32;3.65;;;1.00;;
29384;SDS011;16367;48.736;9.218;2023-03-14T06:56:35;2.80;;;0.80;;
29384;SDS011;16367;48.736;9.218;2023-03-14T06:58:38;3.60;;;0.85;;
29384;SDS011;16367;48.736;9.218;2023-03-14T07:00:41;4.90;;;0.80;;
29384;SDS011;16367;48.736;9.218;2023-03-14T07:02:43;4.35;;;0.70;;
29384;SDS011;16367;48.736;9.218;2023-03-14T07:04:46;2.08;;;0.80;;
29384;SDS011;16367;48.736;9.218;2023-03-14T07:06:50;2.20;;;0.60;;
29384;SDS011;16367;48.736;9.218;2023-03-14T07:08:53;3.55;;;0.55;;
29384;SDS011;16367;48.736;9.218;2023-03-14T07:10:55;2.72;;;0.68;;
29384;SDS011;16367;48.736;9.218;2023-03-14T07:12:58;3.05;;;0.80;;
29384;SDS011;16367;48.736;9.218;2023-03-14T07:15:01;2.08;;;0.60;;
29384;SDS011;16367;48.736;9.218;2023-03-14T07:17:18;2.78;;;0.43;;
29384;SDS011;16367;48.736;9.218;2023-03-14T07:19:21;2.47;;;0.60;;
29384;SDS011;16367;48.736;9.218;2023-03-14T07:21:23;3.50;;;0.73;;
29384;SDS011;16367;48.736;9.218;2023-03-14T07:23:27;3.53;;;0.60;;
29384;SDS011;16367;48.736;9.218;2023-03-14T07:25:30;2.13;;;0.60;;
29384;SDS011;16367;48.736;9.218;2023-03-14T07:27:33;2.03;;;0.50;;
29384;SDS011;16367;48.736;9.218;2023-03-14T07:29:36;1.70;;;0.70;;
29384;SDS011;16367;48.736;9.218;2023-03-14T07:31:38;1.60;;;0.50;;
29384;SDS011;16367;48.736;9.218;2023-03-14T07:33:41;3.85;;;0.77;;
29384;SDS011;16367;48.736;9.218;2023-03-14T07:35:44;4.97;;;1.17;;
29384;SDS011;16367;48.736;9.218;2023-03-14T07:37:48;3.10;;;0.75;;
29384;SDS011;16367;48.736;9.218;2023-03-14T07:39:52;0.95;;;0.32;;
29384;SDS011;16367;48.736;9.218;2023-03-14T07:41:55;1.13;;;0.50;;
29384;SDS011;16367;48.736;9.218;2023-03-14T07:44:00;3.63;;;0.70;;
29384;SDS011;16367;48.736;9.218;2023-03-14T07:46:03;4.10;;;0.80;;
29384;SDS011;16367;48.736;9.218;2023-03-14T07:48:06;1.95;;;0.50;;
29384;SDS011;16367;48.736;9.218;2023-03-14T07:50:09;2.38;;;0.40;;
29384;SDS011;16367;48.736;9.218;2023-03-14T07:52:12;1.27;;;0.40;;
29384;SDS011;16367;48.736;9.218;2023-03-14T07:54:15;2.28;;;0.40;;
29384;SDS011;16367;48.736;9.218;2023-03-14T07:56:21;1.55;;;0.47;;
29384;SDS011;16367;48.736;9.218;2023-03-14T07:58:24;1.88;;;0.40;;
29384;SDS011;16367;48.736;9.218;2023-03-14T08:00:27;1.40;;;0.30;;
29384;SDS011;16367;48.736;9.218;2023-03-14T08:02:29;1.58;;;0.35;;
29384;SDS011;16367;48.736;9.218;2023-03-14T08:04:32;1.13;;;0.32;;
29384;SDS011;16367;48.736;9.218;2023-03-14T08:06:35;1.00;;;0.30;;
29384;SDS011;16367;48.736;9.218;2023-03-14T08:08:39;4.00;;;0.50;;
29384;SDS011;16367;48.736;9.218;2023-03-14T08:10:41;0.70;;;0.22;;
29384;SDS011;16367;48.736;9.218;2023-03-14T08:12:45;2.22;;;0.35;;
29384;SDS011;16367;48.736;9.218;2023-03-14T08:14:48;2.05;;;0.50;;
29384;SDS011;16367;48.736;9.218;2023-03-14T08:16:51;2.90;;;0.40;;
29384;SDS011;16367;48.736;9.218;2023-03-14T08:18:54;3.10;;;0.43;;
29384;SDS011;16367;48.736;9.218;2023-03-14T08:20:57;1.23;;;0.38;;
29384;SDS011;16367;48.736;9.218;2023-03-14T08:23:00;2.22;;;0.55;;
29384;SDS011;16367;48.736;9.218;2023-03-14T08:25:03;1.67;;;0.47;;
29384;SDS011;16367;48.736;9.218;2023-03-14T08:27:06;4.30;;;0.68;;
29384;SDS011;16367;48.736;9.218;2023-03-14T08:29:12;1.90;;;0.40;;
29384;SDS011;16367;48.736;9.218;2023-03-14T08:31:15;1.67;;;0.47;;
29384;SDS011;16367;48.736;9.218;2023-03-14T08:33:18;0.98;;;0.20;;
29384;SDS011;16367;48.736;9.218;2023-03-14T08:35:21;1.45;;;0.35;;
29384;SDS011;16367;48.736;9.218;2023-03-14T08:37:23;1.13;;;0.30;;
29384;SDS011;16367;48.736;9.218;2023-03-14T08:39:27;2.60;;;0.38;;
29384;SDS011;16367;48.736;9.218;2023-03-14T08:41:30;5.03;;;0.63;;
29384;SDS011;16367;48.736;9.218;2023-03-14T08:43:32;1.45;;;0.50;;
29384;SDS011;16367;48.736;9.218;2023-03-14T08:45:36;1.27;;;0.35;;
29384;SDS011;16367;48.736;9.218;2023-03-14T08:47:39;1.02;;;0.30;;
29384;SDS011;16367;48.736;9.218;2023-03-14T08:49:42;1.10;;;0.20;;
29384;SDS011;16367;48.736;9.218;2023-03-14T08:51:44;1.65;;;0.40;;
29384;SDS011;16367;48.736;9.218;2023-03-14T08:53:47;1.63;;;0.35;;
29384;SDS011;16367;48.736;9.218;2023-03-14T08:55:53;1.02;;;0.28;;
29384;SDS011;16367;48.736;9.218;2023-03-14T08:57:56;3.67;;;0.60;;
29384;SDS011;16367;48.736;9.218;2023-03-14T08:59:59;3.53;;;0.55;;
29384;SDS011;16367;48.736;9.218;2023-03-14T09:02:03;1.10;;;0.40;;
29384;SDS011;16367;48.736;9.218;2023-03-14T09:04:06;0.90;;;0.25;;
29384;SDS011;16367;48.736;9.218;2023-03-14T09:06:09;0.77;;;0.30;;
29384;SDS011;16367;48.736;9.218;2023-03-14T09:08:12;1.80;;;0.30;;
29384;SDS011;16367;48.736;9.218;2023-03-14T09:10:15;1.05;;;0.38;;
29384;SDS011;16367;48.736;9.218;2023-03-14T09:12:18;0.65;;;0.20;;
29384;SDS011;16367;48.736;9.218;2023-03-14T09:14:21;0.77;;;0.20;;
29384;SDS011;16367;48.736;9.218;2023-03-14T09:16:23;1.58;;;0.40;;
29384;SDS011;16367;48.736;9.218;2023-03-14T09:18:28;0.25;;;0.15;;
29384;SDS011;16367;48.736;9.218;2023-03-14T09:20:31;2.72;;;0.40;;
29384;SDS011;16367;48.736;9.218;2023-03-14T09:22:33;1.52;;;0.30;;
29384;SDS011;16367;48.736;9.218;2023-03-14T09:24:36;1.65;;;0.45;;
29384;SDS011;16367;48.736;9.218;2023-03-14T09:26:40;1.10;;;0.35;;
29384;SDS011;16367;48.736;9.218;2023-03-14T09:28:42;1.38;;;0.30;;
29384;SDS011;16367;48.736;9.218;2023-03-14T09:30:45;2.08;;;0.30;;
29384;SDS011;16367;48.736;9.218;2023-03-14T09:32:48;2.90;;;0.50;;
29384;SDS011;16367;48.736;9.218;2023-03-14T09:34:52;2.63;;;0.70;;
29384;SDS011;16367;48.736;9.218;2023-03-14T09:36:55;2.25;;;0.30;;
29384;SDS011;16367;48.736;9.218;2023-03-14T09:38:58;1.30;;;0.30;;
29384;SDS011;16367;48.736;9.218;2023-03-14T09:41:01;1.15;;;0.30;;
29384;SDS011;16367;48.736;9.218;2023-03-14T09:43:14;1.48;;;0.20;;
29384;SDS011;16367;48.736;9.218;2023-03-14T09:45:19;1.85;;;0.30;;
29384;SDS011;16367;48.736;9.218;2023-03-14T09:47:27;2.78;;;0.50;;
29384;SDS011;16367;48.736;9.218;2023-03-14T09:49:31;1.67;;;0.30;;
29384;SDS011;16367;48.736;9.218;2023-03-14T09:51:37;2.17;;;0.50;;
29384;SDS011;16367;48.736;9.218;2023-03-14T09:53:42;0.80;;;0.20;;
29384;SDS011;16367;48.736;9.218;2023-03-14T09:55:47;2.22;;;0.30;;
29384;SDS011;16367;48.736;9.218;2023-03-14T09:57:54;0.88;;;0.17;;
29384;SDS011;16367;48.736;9.218;2023-03-14T10:00:01;5.28;;;0.50;;
29384;SDS011;16367;48.736;9.218;2023-03-14T10:02:15;1.48;;;0.40;;
29384;SDS011;16367;48.736;9.218;2023-03-14T10:04:22;1.33;;;0.43;;
29384;SDS011;16367;48.736;9.218;2023-03-14T10:06:26;0.28;;;0.10;;
29384;SDS011;16367;48.736;9.218;2023-03-14T10:08:31;1.38;;;0.32;;
29384;SDS011;16367;48.736;9.218;2023-03-14T10:10:34;2.72;;;0.38;;
29384;SDS011;16367;48.736;9.218;2023-03-14T10:12:37;0.55;;;0.10;;
29384;SDS011;16367;48.736;9.218;2023-03-14T10:14:48;1.70;;;0.30;;
29384;SDS011;16367;48.736;9.218;2023-03-14T10:16:52;0.68;;;0.22;;
29384;SDS011;16367;48.736;9.218;2023-03-14T10:18:58;1.05;;;0.30;;
29384;SDS011;16367;48.736;9.218;2023-03-14T10:21:07;1.42;;;0.28;;
29384;SDS011;16367;48.736;9.218;2023-03-14T10:23:23;0.75;;;0.28;;
29384;SDS011;16367;48.736;9.218;2023-03-14T10:25:31;0.52;;;0.17;;
29384;SDS011;16367;48.736;9.218;2023-03-14T10:27:36;0.50;;;0.20;;
29384;SDS011;16367;48.736;9.218;2023-03-14T10:29:51;0.65;;;0.20;;
29384;SDS011;16367;48.736;9.218;2023-03-14T10:31:57;0.10;;;0.10;;
29384;SDS011;16367;48.736;9.218;2023-03-14T10:34:03;1.45;;;0.22;;
29384;SDS011;16367;48.736;9.218;2023-03-14T10:36:15;2.17;;;0.30;;
29384;SDS011;16367;48.736;9.218;2023-03-14T10:38:22;0.75;;;0.20;;
29384;SDS011;16367;48.736;9.218;2023-03-14T10:40:27;0.47;;;0.20;;
29384;SDS011;16367;48.736;9.218;2023-03-14T10:42:34;1.05;;;0.22;;
29384;SDS011;16367;48.736;9.218;2023-03-14T10:44:46;0.73;;;0.20;;
29384;SDS011;16367;48.736;9.218;2023-03-14T10:46:58;1.08;;;0.20;;
29384;SDS011;16367;48.736;9.218;2023-03-14T10:49:04;0.32;;;0.13;;
29384;SDS011;16367;48.736;9.218;2023-03-14T10:51:09;0.90;;;0.20;;
29384;SDS011;16367;48.736;9.218;2023-03-14T10:53:16;0.20;;;0.10;;
29384;SDS011;16367;48.736;9.218;2023-03-14T10:55:19;1.52;;;0.20;;
29384;SDS011;16367;48.736;9.218;2023-03-14T10:57:22;2.08;;;0.43;;
29384;SDS011;16367;48.736;9.218;2023-03-14T10:59:26;0.68;;;0.20;;
29384;SDS011;16367;48.736;9.218;2023-03-14T11:01:36;1.10;;;0.20;;
29384;SDS011;16367;48.736;9.218;2023-03-14T11:03:45;1.23;;;0.20;;
29384;SDS011;16367;48.736;9.218;2023-03-14T11:05:53;0.65;;;0.13;;
29384;SDS011;16367;48.736;9.218;2023-03-14T11:08:01;3.03;;;0.30;;
29384;SDS011;16367;48.736;9.218;2023-03-14T11:10:11;2.65;;;0.40;;
29384;SDS011;16367;48.736;9.218;2023-03-14T11:12:27;0.98;;;0.40;;
29384;SDS011;16367;48.736;9.218;2023-03-14T11:14:43;0.52;;;0.13;;
29384;SDS011;16367;48.736;9.218;2023-03-14T11:16:53;1.20;;;0.40;;
29384;SDS011;16367;48.736;9.218;2023-03-14T11:21:35;0.70;;;0.20;;
29384;SDS011;16367;48.736;9.218;2023-03-14T11:23:46;0.80;;;0.20;;
29384;SDS011;16367;48.736;9.218;2023-03-14T11:25:56;1.45;;;0.30;;
29384;SDS011;16367;48.736;9.218;2023-03-14T11:28:07;0.40;;;0.17;;
29384;SDS011;16367;48.736;9.218;2023-03-14T11:30:19;1.25;;;0.30;;
29384;SDS011;16367;48.736;9.218;2023-03-14T11:32:35;0.32;;;0.10;;
29384;SDS011;16367;48.736;9.218;2023-03-14T11:34:48;0.75;;;0.30;;
29384;SDS011;16367;48.736;9.218;2023-03-14T11:36:55;0.38;;;0.20;;
29384;SDS011;16367;48.736;9.218;2023-03-14T11:39:02;1.63;;;0.20;;
29384;SDS011;16367;48.736;9.218;2023-03-14T11:41:09;0.10;;;0.08;;
29384;SDS011;16367;48.736;9.218;2023-03-14T11:43:17;0.47;;;0.10;;
29384;SDS011;16367;48.736;9.218;2023-03-14T11:45:30;0.03;;;0.03;;
29384;SDS011;16367;48.736;9.218;2023-03-14T11:47:37;0.70;;;0.20;;
29384;SDS011;16367;48.736;9.218;2023-03-14T11:49:45;0.95;;;0.28;;
29384;SDS011;16367;48.736;9.218;2023-03-14T11:51:53;2.83;;;0.30;;
29384;SDS011;16367;48.736;9.218;2023-03-14T11:54:02;1.00;;;0.32;;
29384;SDS011;16367;48.736;9.218;2023-03-14T11:56:11;0.70;;;0.20;;
29384;SDS011;16367;48.736;9.218;2023-03-14T11:58:17;1.55;;;0.30;;
29384;SDS011;16367;48.736;9.218;2023-03-14T12:00:23;1.75;;;0.40;;
29384;SDS011;16367;48.736;9.218;2023-03-14T12:02:31;1.08;;;0.28;;
29384;SDS011;16367;48.736;9.218;2023-03-14T12:04:47;0.65;;;0.17;;
29384;SDS011;16367;48.736;9.218;2023-03-14T12:06:57;0.10;;;0.10;;
29384;SDS011;16367;48.736;9.218;2023-03-14T12:09:04;0.10;;;0.10;;
29384;SDS011;16367;48.736;9.218;2023-03-14T12:11:10;0.25;;;0.10;;
29384;SDS011;16367;48.736;9.218;2023-03-14T12:13:17;0.57;;;0.15;;
29384;SDS011;16367;48.736;9.218;2023-03-14T12:15:21;0.65;;;0.20;;
29384;SDS011;16367;48.736;9.218;2023-03-14T12:17:26;0.32;;;0.15;;
29384;SDS011;16367;48.736;9.218;2023-03-14T12:21:46;0.17;;;0.10;;
29384;SDS011;16367;48.736;9.218;2023-03-14T12:23:52;0.63;;;0.13;;
29384;SDS011;16367;48.736;9.218;2023-03-14T12:26:06;0.43;;;0.10;;
29384;SDS011;16367;48.736;9.218;2023-03-14T12:28:18;0.88;;;0.17;;
29384;SDS011;16367;48.736;9.218;2023-03-14T12:30:26;0.22;;;0.03;;
29384;SDS011;16367;48.736;9.218;2023-03-14T12:32:30;0.03;;;0.00;;
29384;SDS011;16367;48.736;9.218;2023-03-14T12:34:35;0.40;;;0.10;;